Da Nang, Viet Nam

2:56 PM ICT on April 27, 2015 (GMT +0700)
Danang International | | Change Station
CLOSE
Current Station
Airport
Location: Da Nang,
Elevation: 23 ft
Nearby Weather Stations

Elev 23 ft 16.04 °N, 108.20 °E | Updated 26 minutes ago

Scattered Clouds
Scattered Clouds
86 °F
Feels Like 95 °F
N
10
Wind Variable Wind from East

Today
High -- | Low -- °F
--% Chance of Precip.
Yesterday
High -- | Low -- °F
Precip. -- in
5:25 AM 6:04 PM
Waxing Gibbous, 63% visible
Pressure 29.86 in
Visibility 5.0 miles
Clouds Few 1500 ft
Scattered Clouds 30000 ft
Heat Index 95 °F
Dew Point 75 °F
Humidity 70%
Rainfall 0.00 in
Snow Depth Not available.
UV 6 out of 12
Pollen Not available.
Air Quality Not available.
Flu Activity Not available.
METAR VVDN 270730Z 09009KT 060V130 8000 FEW015 SCT300 30/24 Q1011 NOSIG

More Conditions Fewer Conditions

Pressure 29.86 in
Visibility 5.0 miles
Clouds Few 1500 ft
Scattered Clouds 30000 ft
Heat Index 95 °F
Dew Point 75 °F
Humidity 70%
Rainfall 0.00 in
Snow Depth Not available.
UV 6 out of 12
Pollen Not available.
Air Quality Not available.
Flu Activity Not available.
METAR VVDN 270730Z 09009KT 060V130 8000 FEW015 SCT300 30/24 Q1011 NOSIG

More Conditions Fewer Conditions

10-Day Weather Forecast

Almanac

Astronomy

Apr. 27, 2015 Rise Set
Actual Time
Civil Twilight
Nautical Twilight
Astronomical Twilight
Moon
Length of Visible Light
Length of Day
Tomorrow will be .
, % of the Moon is Illuminated

Today's Extremes

Country Highs Country Lows

Community

WunderPhotos

Upload Photos

1,817,277 photos uploaded!

WunderBlogs® & News

Nearby

Air Quality

  Air Quality AQ Index Pollutant
Not available.

Snow Depth

Station Depth Elevation

Earthquake Activity

City Distance Mag. Time & Date
Minimum magnitude displayed is 2.5.

Coastal Water Temperatures

Place Temperature

Stations

Nearby Weather Stations

Station Location Temp. Windchill Dew Point Humidity Wind Precip. Elev Updated Type